| Date | Time | Temp. (oF) | Dew Point (oF) | Rel. Hum. (%) | Press. (in.) | Wind Dir. | Wind Speed (mph) | Hourly Rainfall (in.) |
|
|---|---|---|---|---|---|---|---|---|---|
| 1 | 12/29 | 00:00 | 46 | 41 | 84 | 29.56 | S | 3 | 0.00 |
| 2 | 12/28 | 23:00 | 45 | 40 | 85 | 29.58 | ESE | 2 | 0.00 |
| 3 | 12/28 | 22:00 | 44 | 40 | 87 | 29.61 | SSW | 3 | 0.00 |
| 4 | 12/28 | 21:00 | 41 | 38 | 90 | 29.62 | S | 1 | 0.00 |
| 5 | 12/28 | 20:00 | 41 | 38 | 89 | 29.64 | E | 3 | 0.00 |
| 6 | 12/28 | 19:00 | 42 | 37 | 85 | 29.66 | E | 3 | 0.00 |
| 7 | 12/28 | 18:00 | 43 | 37 | 82 | 29.68 | ENE | 3 | 0.00 |
| 8 | 12/28 | 17:00 | 44 | 37 | 79 | 29.68 | NE | 4 | 0.00 |
| 9 | 12/28 | 16:00 | 45 | 38 | 77 | 29.70 | ESE | 2 | 0.00 |
| 10 | 12/28 | 15:00 | 45 | 38 | 77 | 29.71 | SE | 2 | 0.00 |
| 11 | 12/28 | 14:00 | 44 | 37 | 78 | 29.73 | SSE | 4 | 0.00 |
| 12 | 12/28 | 13:00 | 42 | 35 | 79 | 29.76 | ESE | 3 | 0.00 |
| 13 | 12/28 | 12:00 | 40 | 36 | 86 | 29.79 | ESE | 4 | 0.00 |
| 14 | 12/28 | 11:00 | 38 | 36 | 94 | 29.85 | SSW | 4 | 0.00 |
| 15 | 12/28 | 10:00 | 34 | 33 | 98 | 29.85 | E | 2 | 0.00 |
| 16 | 12/28 | 09:00 | 31 | 30 | 98 | 29.87 | E | 4 | 0.00 |
| 17 | 12/28 | 08:00 | 29 | 28 | 98 | 29.88 | ENE | 1 | 0.00 |
| 18 | 12/28 | 07:00 | 29 | 28 | 96 | 29.89 | ENE | 3 | 0.00 |
| 19 | 12/28 | 06:00 | 28 | 26 | 94 | 29.89 | NE | 2 | 0.00 |
| 20 | 12/28 | 05:00 | 29 | 26 | 92 | 29.89 | ENE | 0 | 0.00 |
| 21 | 12/28 | 04:00 | 31 | 29 | 93 | 29.90 | ENE | 1 | 0.00 |
| 22 | 12/28 | 03:00 | 31 | 28 | 91 | 29.91 | NE | 1 | 0.00 |
| 23 | 12/28 | 02:00 | 32 | 28 | 88 | 29.92 | ESE | 0 | 0.00 |
| 24 | 12/28 | 01:00 | 33 | 28 | 85 | 29.92 | SE | 1 | 0.00 |